WZZ166 UKBB-LATI
Flight info
| Callsign | WZZ166 |
|---|---|
| Flight time | N/A |
| Altitude | 34000 |
| Route | VESEL M854 GOROS N181 LAVDA N145 VILIS/N0449F340 DCT EBCOL DCT ELDET DCT OKANA DCT PETAK |
| Aircraft | A321/M-SDE3FGHIRWY/LB1 |
Departure
| Time | N/A |
|---|---|
| Airport | Boryspil International Airport (UKBB) |
Arrival
| Time | 2026-04-28 09:49 |
|---|---|
| Airport | Tirana International Airport Mother Teresa (LATI) |
| Time | Latitude | Longitude | Altitude | Speed | Heading |
|---|---|---|---|---|---|
| 2026-04-28 08:43 | 46.49663 | 26.43745 | 34164 ft | 433 kts | 228° |
| 2026-04-28 08:43 | 46.47376 | 26.40924 | 34151 ft | 433 kts | 228° |
| 2026-04-28 08:44 | 46.42785 | 26.35273 | 34160 ft | 433 kts | 228° |
| 2026-04-28 08:44 | 46.38184 | 26.29639 | 34125 ft | 434 kts | 228° |
| 2026-04-28 08:45 | 46.33577 | 26.24004 | 34124 ft | 434 kts | 228° |
| 2026-04-28 08:45 | 46.28958 | 26.18368 | 34142 ft | 435 kts | 228° |
| 2026-04-28 08:46 | 46.24360 | 26.12783 | 34151 ft | 435 kts | 228° |
| 2026-04-28 08:46 | 46.19731 | 26.07169 | 34132 ft | 434 kts | 227° |
| 2026-04-28 08:47 | 46.15103 | 26.01553 | 34139 ft | 435 kts | 227° |
| 2026-04-28 08:47 | 46.10472 | 25.95938 | 34148 ft | 435 kts | 227° |
| 2026-04-28 08:48 | 46.05830 | 25.90335 | 34132 ft | 436 kts | 227° |
| 2026-04-28 08:48 | 46.01212 | 25.84782 | 34134 ft | 436 kts | 227° |
| 2026-04-28 08:49 | 45.96571 | 25.79173 | 34144 ft | 435 kts | 228° |
| 2026-04-28 08:49 | 45.92026 | 25.73446 | 34151 ft | 434 kts | 229° |
| 2026-04-28 08:50 | 45.87542 | 25.67722 | 34162 ft | 435 kts | 229° |
| 2026-04-28 08:50 | 45.83004 | 25.61994 | 34170 ft | 435 kts | 229° |
| 2026-04-28 08:51 | 45.78439 | 25.56288 | 34181 ft | 436 kts | 229° |
| 2026-04-28 08:51 | 45.73865 | 25.50597 | 34184 ft | 435 kts | 229° |
| 2026-04-28 08:52 | 45.69296 | 25.44906 | 34138 ft | 435 kts | 228° |
| 2026-04-28 08:52 | 45.64761 | 25.39258 | 34133 ft | 436 kts | 228° |
| 2026-04-28 08:53 | 45.60953 | 25.34532 | 34144 ft | 436 kts | 228° |
| 2026-04-28 08:53 | 45.55594 | 25.27898 | 34112 ft | 436 kts | 228° |
| 2026-04-28 08:54 | 45.50998 | 25.22232 | 34120 ft | 437 kts | 228° |
| 2026-04-28 08:54 | 45.46427 | 25.16597 | 34130 ft | 438 kts | 228° |
| 2026-04-28 08:55 | 45.41821 | 25.10925 | 34129 ft | 437 kts | 228° |
| 2026-04-28 08:55 | 45.37210 | 25.05270 | 34109 ft | 438 kts | 227° |
| 2026-04-28 08:56 | 45.33367 | 25.00570 | 34116 ft | 438 kts | 227° |
| 2026-04-28 08:56 | 45.27992 | 24.94002 | 34126 ft | 439 kts | 227° |
| 2026-04-28 08:57 | 45.23360 | 24.88360 | 34130 ft | 439 kts | 227° |
| 2026-04-28 08:57 | 45.19509 | 24.83681 | 34113 ft | 439 kts | 227° |
| 2026-04-28 08:58 | 45.14865 | 24.78048 | 34122 ft | 439 kts | 227° |
| 2026-04-28 08:58 | 45.10221 | 24.72421 | 34128 ft | 439 kts | 227° |
| 2026-04-28 08:59 | 45.04818 | 24.65896 | 34113 ft | 440 kts | 227° |
| 2026-04-28 08:59 | 45.00946 | 24.61231 | 34118 ft | 440 kts | 227° |
| 2026-04-28 09:00 | 44.96290 | 24.55629 | 34122 ft | 440 kts | 227° |
| 2026-04-28 09:00 | 44.90862 | 24.49117 | 34135 ft | 440 kts | 227° |
| 2026-04-28 09:01 | 44.86952 | 24.44434 | 34116 ft | 441 kts | 227° |
| 2026-04-28 09:01 | 44.82308 | 24.38880 | 34120 ft | 441 kts | 227° |
| 2026-04-28 09:02 | 44.77627 | 24.33290 | 34129 ft | 441 kts | 227° |
| 2026-04-28 09:02 | 44.72937 | 24.27712 | 34115 ft | 441 kts | 226° |
| 2026-04-28 09:03 | 44.68243 | 24.22144 | 34125 ft | 442 kts | 226° |
| 2026-04-28 09:03 | 44.63578 | 24.16627 | 34141 ft | 442 kts | 226° |
| 2026-04-28 09:04 | 44.58873 | 24.11071 | 34150 ft | 442 kts | 226° |
| 2026-04-28 09:04 | 44.54165 | 24.05519 | 34132 ft | 442 kts | 226° |
| 2026-04-28 09:05 | 44.49447 | 23.99974 | 34140 ft | 443 kts | 226° |
| 2026-04-28 09:05 | 44.44756 | 23.94462 | 34150 ft | 443 kts | 226° |
| 2026-04-28 09:06 | 44.40034 | 23.88924 | 34142 ft | 444 kts | 226° |
| 2026-04-28 09:06 | 44.35297 | 23.83390 | 34150 ft | 444 kts | 226° |
| 2026-04-28 09:07 | 44.30559 | 23.77874 | 34173 ft | 443 kts | 226° |
| 2026-04-28 09:07 | 44.25574 | 23.72836 | 34157 ft | 448 kts | 219° |
| 2026-04-28 09:08 | 44.20334 | 23.68128 | 34161 ft | 448 kts | 219° |
| 2026-04-28 09:08 | 44.15099 | 23.63436 | 34161 ft | 448 kts | 219° |
| 2026-04-28 09:09 | 44.09894 | 23.58759 | 34158 ft | 448 kts | 219° |
| 2026-04-28 09:09 | 44.04661 | 23.54070 | 34139 ft | 448 kts | 218° |
| 2026-04-28 09:10 | 43.99412 | 23.49381 | 34145 ft | 449 kts | 218° |
| 2026-04-28 09:10 | 43.94154 | 23.44698 | 34153 ft | 449 kts | 218° |
| 2026-04-28 09:11 | 43.88891 | 23.40019 | 34134 ft | 450 kts | 218° |
| 2026-04-28 09:11 | 43.83658 | 23.35368 | 34140 ft | 450 kts | 218° |
| 2026-04-28 09:12 | 43.78377 | 23.30689 | 34142 ft | 451 kts | 218° |
| 2026-04-28 09:12 | 43.73087 | 23.26018 | 34132 ft | 451 kts | 218° |
| 2026-04-28 09:13 | 43.67783 | 23.21353 | 34153 ft | 452 kts | 218° |
| 2026-04-28 09:13 | 43.62482 | 23.16689 | 34152 ft | 452 kts | 218° |
| 2026-04-28 09:14 | 43.57207 | 23.12049 | 34143 ft | 453 kts | 218° |
| 2026-04-28 09:14 | 43.51889 | 23.07390 | 34132 ft | 453 kts | 218° |
| 2026-04-28 09:15 | 43.46559 | 23.02740 | 34134 ft | 454 kts | 218° |
| 2026-04-28 09:15 | 43.41225 | 22.98090 | 34136 ft | 454 kts | 218° |
| 2026-04-28 09:16 | 43.35923 | 22.93473 | 34132 ft | 454 kts | 217° |
| 2026-04-28 09:16 | 43.30591 | 22.88842 | 34134 ft | 453 kts | 217° |
| 2026-04-28 09:17 | 43.25250 | 22.84210 | 34138 ft | 454 kts | 217° |
| 2026-04-28 09:17 | 43.19908 | 22.79579 | 34134 ft | 455 kts | 217° |
| 2026-04-28 09:18 | 43.14589 | 22.74988 | 34143 ft | 455 kts | 217° |
| 2026-04-28 09:18 | 43.09229 | 22.70381 | 34145 ft | 455 kts | 217° |
| 2026-04-28 09:19 | 43.03862 | 22.65773 | 34133 ft | 456 kts | 217° |
| 2026-04-28 09:19 | 42.98532 | 22.61188 | 34139 ft | 456 kts | 217° |
| 2026-04-28 09:20 | 42.93158 | 22.56580 | 34148 ft | 456 kts | 217° |
| 2026-04-28 09:20 | 42.87864 | 22.51829 | 34129 ft | 452 kts | 224° |
| 2026-04-28 09:21 | 42.83736 | 22.45572 | 34136 ft | 440 kts | 243° |
| 2026-04-28 09:21 | 42.81095 | 22.38154 | 34135 ft | 434 kts | 251° |
| 2026-04-28 09:22 | 42.78706 | 22.30653 | 34137 ft | 435 kts | 251° |
| 2026-04-28 09:22 | 42.76281 | 22.23101 | 34123 ft | 436 kts | 251° |
| 2026-04-28 09:23 | 42.73845 | 22.15533 | 34126 ft | 437 kts | 251° |
| 2026-04-28 09:23 | 42.71404 | 22.07965 | 34138 ft | 437 kts | 251° |
| 2026-04-28 09:24 | 42.68552 | 22.00672 | 34150 ft | 441 kts | 244° |
| 2026-04-28 09:24 | 42.65444 | 21.93482 | 34155 ft | 442 kts | 244° |
| 2026-04-28 09:25 | 42.62309 | 21.86305 | 34165 ft | 442 kts | 244° |
| 2026-04-28 09:25 | 42.59192 | 21.79122 | 34156 ft | 441 kts | 244° |
| 2026-04-28 09:25 | 42.57664 | 21.75589 | 33876 ft | 439 kts | 244° |
| 2026-04-28 09:26 | 42.56119 | 21.72025 | 33245 ft | 438 kts | 244° |
| 2026-04-28 09:26 | 42.54573 | 21.68461 | 32570 ft | 439 kts | 244° |
| 2026-04-28 09:26 | 42.53021 | 21.64892 | 31887 ft | 440 kts | 243° |
| 2026-04-28 09:26 | 42.51464 | 21.61316 | 31201 ft | 441 kts | 243° |
| 2026-04-28 09:27 | 42.48366 | 21.54231 | 30190 ft | 434 kts | 243° |
| 2026-04-28 09:27 | 42.46831 | 21.50722 | 29611 ft | 430 kts | 243° |
| 2026-04-28 09:27 | 42.45314 | 21.47259 | 29056 ft | 426 kts | 243° |
| 2026-04-28 09:28 | 42.43809 | 21.43820 | 28501 ft | 423 kts | 243° |
| 2026-04-28 09:28 | 42.42336 | 21.40460 | 27972 ft | 419 kts | 243° |
| 2026-04-28 09:28 | 42.40856 | 21.37086 | 27435 ft | 415 kts | 243° |
| 2026-04-28 09:28 | 42.39384 | 21.33739 | 26906 ft | 412 kts | 243° |
| 2026-04-28 09:29 | 42.37925 | 21.30424 | 26345 ft | 409 kts | 242° |
| 2026-04-28 09:29 | 42.36472 | 21.27128 | 25821 ft | 406 kts | 242° |
| 2026-04-28 09:29 | 42.35028 | 21.23857 | 25315 ft | 404 kts | 242° |
| 2026-04-28 09:29 | 42.33595 | 21.20610 | 24828 ft | 401 kts | 242° |
| 2026-04-28 09:30 | 42.32176 | 21.17395 | 24358 ft | 398 kts | 242° |
| 2026-04-28 09:30 | 42.30781 | 21.14239 | 23927 ft | 395 kts | 242° |
| 2026-04-28 09:30 | 42.29376 | 21.11065 | 23427 ft | 392 kts | 242° |
| 2026-04-28 09:30 | 42.27980 | 21.07917 | 22936 ft | 389 kts | 242° |
| 2026-04-28 09:31 | 42.26593 | 21.04791 | 22454 ft | 387 kts | 242° |
| 2026-04-28 09:31 | 42.25214 | 21.01683 | 21953 ft | 385 kts | 242° |
| 2026-04-28 09:31 | 42.23837 | 20.98591 | 21454 ft | 383 kts | 242° |
| 2026-04-28 09:31 | 42.22464 | 20.95517 | 20963 ft | 382 kts | 242° |
| 2026-04-28 09:32 | 42.21114 | 20.92499 | 20499 ft | 380 kts | 242° |
| 2026-04-28 09:32 | 42.19756 | 20.89457 | 20039 ft | 378 kts | 242° |
| 2026-04-28 09:32 | 42.18406 | 20.86431 | 19584 ft | 375 kts | 242° |
| 2026-04-28 09:32 | 42.17067 | 20.83430 | 19102 ft | 373 kts | 241° |
| 2026-04-28 09:33 | 42.15730 | 20.80438 | 18635 ft | 371 kts | 241° |
| 2026-04-28 09:33 | 42.14399 | 20.77462 | 18089 ft | 370 kts | 241° |
| 2026-04-28 09:33 | 42.13073 | 20.74503 | 17597 ft | 368 kts | 241° |
| 2026-04-28 09:33 | 42.11754 | 20.71568 | 17109 ft | 365 kts | 240° |
| 2026-04-28 09:34 | 42.10445 | 20.68659 | 16625 ft | 362 kts | 240° |
| 2026-04-28 09:34 | 42.09161 | 20.65812 | 16178 ft | 359 kts | 240° |
| 2026-04-28 09:34 | 42.07869 | 20.62954 | 15714 ft | 356 kts | 240° |
| 2026-04-28 09:34 | 42.06586 | 20.60112 | 15314 ft | 355 kts | 240° |
| 2026-04-28 09:35 | 42.05309 | 20.57278 | 14947 ft | 353 kts | 240° |
| 2026-04-28 09:35 | 42.04038 | 20.54457 | 14586 ft | 351 kts | 240° |
| 2026-04-28 09:35 | 42.02775 | 20.51656 | 14224 ft | 349 kts | 240° |
| 2026-04-28 09:35 | 42.01521 | 20.48872 | 13860 ft | 347 kts | 240° |
| 2026-04-28 09:36 | 42.00272 | 20.46104 | 13473 ft | 346 kts | 240° |
| 2026-04-28 09:36 | 41.99038 | 20.43374 | 13143 ft | 346 kts | 240° |
| 2026-04-28 09:36 | 41.97786 | 20.40617 | 12875 ft | 345 kts | 240° |
| 2026-04-28 09:36 | 41.96533 | 20.37865 | 12612 ft | 345 kts | 240° |
| 2026-04-28 09:37 | 41.95280 | 20.35117 | 12353 ft | 344 kts | 240° |
| 2026-04-28 09:37 | 41.94033 | 20.32384 | 12095 ft | 343 kts | 239° |
| 2026-04-28 09:37 | 41.92790 | 20.29659 | 11838 ft | 341 kts | 239° |
| 2026-04-28 09:37 | 41.91551 | 20.26943 | 11575 ft | 340 kts | 239° |
| 2026-04-28 09:38 | 41.90317 | 20.24240 | 11323 ft | 339 kts | 240° |
| 2026-04-28 09:38 | 41.89105 | 20.21584 | 11088 ft | 337 kts | 239° |
| 2026-04-28 09:38 | 41.87884 | 20.18911 | 10842 ft | 336 kts | 239° |
| 2026-04-28 09:38 | 41.86661 | 20.16234 | 10588 ft | 335 kts | 239° |
| 2026-04-28 09:39 | 41.85447 | 20.13580 | 10343 ft | 334 kts | 239° |
| 2026-04-28 09:39 | 41.84247 | 20.10961 | 10101 ft | 325 kts | 238° |
| 2026-04-28 09:39 | 41.83079 | 20.08411 | 9867 ft | 316 kts | 238° |
| 2026-04-28 09:39 | 41.81953 | 20.05950 | 9750 ft | 304 kts | 238° |
| 2026-04-28 09:40 | 41.80866 | 20.03580 | 9610 ft | 293 kts | 238° |
| 2026-04-28 09:40 | 41.79823 | 20.01307 | 9483 ft | 288 kts | 238° |
| 2026-04-28 09:40 | 41.78777 | 19.99029 | 9199 ft | 286 kts | 238° |
| 2026-04-28 09:40 | 41.77738 | 19.96775 | 8870 ft | 284 kts | 238° |
| 2026-04-28 09:41 | 41.76703 | 19.94532 | 8535 ft | 282 kts | 238° |
| 2026-04-28 09:41 | 41.75672 | 19.92304 | 8172 ft | 279 kts | 238° |
| 2026-04-28 09:41 | 41.74650 | 19.90096 | 7696 ft | 279 kts | 239° |
| 2026-04-28 09:41 | 41.73633 | 19.87897 | 7300 ft | 277 kts | 239° |
| 2026-04-28 09:42 | 41.72631 | 19.85726 | 6748 ft | 272 kts | 239° |
| 2026-04-28 09:42 | 41.71638 | 19.83577 | 6105 ft | 270 kts | 239° |
| 2026-04-28 09:42 | 41.70667 | 19.81481 | 5384 ft | 267 kts | 239° |
| 2026-04-28 09:42 | 41.69685 | 19.79361 | 4829 ft | 268 kts | 239° |
| 2026-04-28 09:43 | 41.68711 | 19.77258 | 4442 ft | 262 kts | 238° |
| 2026-04-28 09:43 | 41.67767 | 19.75225 | 4312 ft | 252 kts | 238° |
| 2026-04-28 09:43 | 41.66858 | 19.73266 | 4166 ft | 244 kts | 238° |
| 2026-04-28 09:43 | 41.65916 | 19.71406 | 3908 ft | 240 kts | 227° |
| 2026-04-28 09:44 | 41.64621 | 19.70028 | 3648 ft | 238 kts | 207° |
| 2026-04-28 09:44 | 41.63066 | 19.69345 | 3353 ft | 237 kts | 187° |
| 2026-04-28 09:44 | 41.61446 | 19.69386 | 3096 ft | 236 kts | 175° |
| 2026-04-28 09:44 | 41.59848 | 19.69605 | 3002 ft | 225 kts | 174° |
| 2026-04-28 09:45 | 41.58312 | 19.69813 | 2993 ft | 221 kts | 175° |
| 2026-04-28 09:45 | 41.56786 | 19.70017 | 2821 ft | 219 kts | 174° |
| 2026-04-28 09:45 | 41.55274 | 19.70219 | 2555 ft | 217 kts | 174° |
| 2026-04-28 09:45 | 41.53782 | 19.70418 | 2311 ft | 212 kts | 175° |
| 2026-04-28 09:46 | 41.52359 | 19.70608 | 2030 ft | 198 kts | 175° |
| 2026-04-28 09:46 | 41.51056 | 19.70782 | 1757 ft | 183 kts | 175° |
| 2026-04-28 09:46 | 41.49856 | 19.70941 | 1538 ft | 164 kts | 175° |
| 2026-04-28 09:46 | 41.48755 | 19.71088 | 1312 ft | 155 kts | 175° |
| 2026-04-28 09:47 | 41.47694 | 19.71229 | 1129 ft | 152 kts | 177° |
| 2026-04-28 09:47 | 41.46645 | 19.71369 | 928 ft | 151 kts | 175° |
| 2026-04-28 09:47 | 41.45602 | 19.71507 | 737 ft | 151 kts | 176° |
| 2026-04-28 09:47 | 41.44558 | 19.71649 | 524 ft | 151 kts | 176° |
| 2026-04-28 09:48 | 41.43510 | 19.71786 | 333 ft | 152 kts | 175° |
| 2026-04-28 09:48 | 41.42460 | 19.71927 | 139 ft | 151 kts | 176° |
| 2026-04-28 09:48 | 41.41560 | 19.72045 | 123 ft | 108 kts | 174° |
| 2026-04-28 09:48 | 41.40984 | 19.72121 | 132 ft | 58 kts | 174° |
| 2026-04-28 09:49 | 41.40731 | 19.72154 | 134 ft | 10 kts | 174° |
| 2026-04-28 09:49 | 41.40680 | 19.72107 | 134 ft | 10 kts | 249° |
| 2026-04-28 09:49 | 41.40659 | 19.72002 | 132 ft | 13 kts | 256° |
| 2026-04-28 09:49 | 41.40638 | 19.71885 | 132 ft | 13 kts | 256° |
| 2026-04-28 09:50 | 41.40634 | 19.71786 | 132 ft | 9 kts | 301° |
| 2026-04-28 09:50 | 41.40698 | 19.71759 | 132 ft | 11 kts | 352° |
| 2026-04-28 09:50 | 41.40794 | 19.71741 | 132 ft | 16 kts | 349° |
| 2026-04-28 09:50 | 41.40908 | 19.71713 | 132 ft | 17 kts | 349° |
| 2026-04-28 09:51 | 41.41028 | 19.71694 | 132 ft | 18 kts | 355° |
| 2026-04-28 09:51 | 41.41154 | 19.71678 | 132 ft | 18 kts | 354° |
| 2026-04-28 09:51 | 41.41285 | 19.71661 | 132 ft | 19 kts | 354° |
| 2026-04-28 09:51 | 41.41419 | 19.71644 | 132 ft | 20 kts | 354° |
| 2026-04-28 09:52 | 41.41557 | 19.71625 | 132 ft | 20 kts | 354° |
| 2026-04-28 09:52 | 41.41697 | 19.71607 | 132 ft | 20 kts | 354° |
| 2026-04-28 09:52 | 41.41836 | 19.71589 | 132 ft | 18 kts | 354° |
| 2026-04-28 09:52 | 41.41943 | 19.71575 | 132 ft | 12 kts | 354° |
| 2026-04-28 09:53 | 41.41992 | 19.71558 | 132 ft | 4 kts | 300° |
| 2026-04-28 09:53 | 41.41991 | 19.71516 | 132 ft | 5 kts | 265° |
| 2026-04-28 09:53 | 41.41990 | 19.71506 | 132 ft | 1 kts | 264° |